createdAt,value
2017-06-11T00:00:27.054Z,49
2017-06-11T00:01:35.144Z,49
2017-06-11T00:02:43.229Z,49
2017-06-11T00:03:51.316Z,49
2017-06-11T00:04:59.402Z,49
2017-06-11T00:06:07.495Z,49
2017-06-11T00:07:15.582Z,49
2017-06-11T00:08:23.669Z,49
2017-06-11T00:09:31.759Z,49
2017-06-11T00:10:39.843Z,49
2017-06-11T00:11:47.930Z,49
2017-06-11T00:12:56.020Z,49
2017-06-11T00:14:04.103Z,49
2017-06-11T00:15:12.189Z,49
2017-06-11T00:16:20.278Z,49
2017-06-11T00:17:28.367Z,49
2017-06-11T00:18:36.452Z,49
2017-06-11T00:19:44.537Z,49
2017-06-11T00:20:52.624Z,49
2017-06-11T00:22:00.712Z,49
2017-06-11T00:23:08.799Z,49
2017-06-11T00:24:16.883Z,49
2017-06-11T00:25:24.969Z,49
2017-06-11T00:26:33.055Z,49
2017-06-11T00:27:41.144Z,49
2017-06-11T00:28:49.230Z,49
2017-06-11T00:29:57.319Z,49
2017-06-11T00:31:05.406Z,49
2017-06-11T00:32:13.496Z,49
2017-06-11T00:33:21.579Z,49
2017-06-11T00:34:29.674Z,48
2017-06-11T00:35:37.751Z,48
2017-06-11T00:36:51.920Z,48
2017-06-11T00:37:53.927Z,48
2017-06-11T00:39:02.013Z,48
2017-06-11T00:40:10.112Z,48
2017-06-11T00:41:18.191Z,48
2017-06-11T00:42:26.277Z,48
2017-06-11T00:43:34.366Z,48
2017-06-11T00:44:42.457Z,48
2017-06-11T00:45:50.536Z,48
2017-06-11T00:46:58.624Z,48
2017-06-11T00:48:06.712Z,48
2017-06-11T00:49:14.800Z,48
2017-06-11T00:50:22.884Z,48
2017-06-11T00:51:30.973Z,48
2017-06-11T00:52:39.068Z,48
2017-06-11T00:53:47.144Z,48
2017-06-11T00:54:55.230Z,48
2017-06-11T00:56:03.318Z,48
2017-06-11T00:57:11.406Z,48
2017-06-11T00:58:19.489Z,48
2017-06-11T00:59:27.576Z,48
2017-06-11T01:00:35.666Z,48
2017-06-11T01:01:43.752Z,48
2017-06-11T01:02:51.839Z,48
2017-06-11T01:03:59.924Z,48
2017-06-11T01:05:08.017Z,48
2017-06-11T01:06:16.097Z,48
2017-06-11T01:07:24.185Z,48
2017-06-11T01:08:32.274Z,48
2017-06-11T01:09:40.362Z,48
2017-06-11T01:10:48.448Z,48
2017-06-11T01:11:56.537Z,48
2017-06-11T01:13:04.629Z,48
2017-06-11T01:14:12.708Z,48
2017-06-11T01:15:20.794Z,48
2017-06-11T01:16:28.882Z,48
2017-06-11T01:17:36.976Z,48
2017-06-11T01:18:45.056Z,48
2017-06-11T01:19:53.141Z,48
2017-06-11T01:21:01.229Z,48
2017-06-11T01:22:09.313Z,48
2017-06-11T01:23:17.403Z,48
2017-06-11T01:24:25.493Z,48
2017-06-11T01:25:33.586Z,48
2017-06-11T01:26:41.667Z,48
2017-06-11T01:27:49.762Z,48
2017-06-11T01:28:57.847Z,48
2017-06-11T01:30:05.960Z,48
2017-06-11T01:31:14.021Z,48
2017-06-11T01:32:22.110Z,48
2017-06-11T01:33:30.193Z,48
2017-06-11T01:34:38.284Z,48
2017-06-11T01:35:46.369Z,48
2017-06-11T01:36:54.456Z,48
2017-06-11T01:38:02.541Z,48
2017-06-11T01:39:10.630Z,48
2017-06-11T01:40:18.716Z,48
2017-06-11T01:41:26.804Z,48
2017-06-11T01:42:34.888Z,48
2017-06-11T01:43:42.976Z,48
2017-06-11T01:44:51.089Z,48
2017-06-11T01:45:59.151Z,48
2017-06-11T01:47:07.241Z,48
2017-06-11T01:48:15.330Z,48
2017-06-11T01:49:23.427Z,48
2017-06-11T01:50:31.515Z,48
2017-06-11T01:51:39.596Z,48
2017-06-11T01:52:47.686Z,48
2017-06-11T01:53:55.771Z,48
2017-06-11T01:55:03.860Z,48
2017-06-11T01:56:11.944Z,48
2017-06-11T01:57:20.030Z,48
2017-06-11T01:58:28.116Z,48
2017-06-11T01:59:36.204Z,48
2017-06-11T02:00:44.291Z,48
2017-06-11T02:01:52.378Z,48
2017-06-11T02:03:00.466Z,48
2017-06-11T02:04:08.552Z,48
2017-06-11T02:05:16.641Z,48
2017-06-11T02:06:24.726Z,48
2017-06-11T02:07:32.810Z,48
2017-06-11T02:08:40.901Z,48
2017-06-11T02:09:48.985Z,48
2017-06-11T02:10:57.071Z,48
2017-06-11T02:12:05.162Z,48
2017-06-11T02:13:13.247Z,48
2017-06-11T02:14:21.336Z,48
2017-06-11T02:15:29.429Z,48
2017-06-11T02:16:37.515Z,48
2017-06-11T02:17:45.605Z,48
2017-06-11T02:18:53.720Z,48
2017-06-11T02:20:01.784Z,48
2017-06-11T02:21:09.871Z,48
2017-06-11T02:22:17.958Z,48
2017-06-11T02:23:26.044Z,48
2017-06-11T02:24:34.131Z,48
2017-06-11T02:25:42.217Z,48
2017-06-11T02:26:50.309Z,48
2017-06-11T02:27:58.398Z,48
2017-06-11T02:29:06.491Z,48
2017-06-11T02:30:14.579Z,48
2017-06-11T02:31:22.665Z,48
2017-06-11T02:32:30.752Z,48
2017-06-11T02:33:38.839Z,48
2017-06-11T02:34:46.925Z,48
2017-06-11T02:35:55.014Z,48
2017-06-11T02:37:03.102Z,48
2017-06-11T02:38:11.187Z,48
2017-06-11T02:39:19.275Z,48
2017-06-11T02:40:27.361Z,48
2017-06-11T02:41:35.446Z,48
2017-06-11T02:42:43.532Z,48
2017-06-11T02:43:51.623Z,48
2017-06-11T02:44:59.708Z,48
2017-06-11T02:46:07.795Z,48
2017-06-11T02:47:15.882Z,48
2017-06-11T02:48:23.967Z,48
2017-06-11T02:49:32.054Z,48
2017-06-11T02:50:40.141Z,48
2017-06-11T02:51:48.226Z,48
2017-06-11T02:52:56.311Z,48
2017-06-11T02:54:04.400Z,48
2017-06-11T02:55:12.486Z,48
2017-06-11T02:56:20.580Z,47
2017-06-11T02:57:28.660Z,48
2017-06-11T02:58:36.746Z,48
2017-06-11T02:59:44.834Z,48
2017-06-11T03:00:52.924Z,48
2017-06-11T03:02:01.010Z,48
2017-06-11T03:03:09.105Z,48
2017-06-11T03:04:17.185Z,48
2017-06-11T03:05:25.273Z,48
2017-06-11T03:06:33.359Z,48
2017-06-11T03:07:41.446Z,48
2017-06-11T03:08:49.531Z,48
2017-06-11T03:09:57.617Z,48
2017-06-11T03:11:05.703Z,48
2017-06-11T03:12:13.792Z,48
2017-06-11T03:13:21.879Z,47
2017-06-11T03:14:29.968Z,48
2017-06-11T03:15:38.054Z,48
2017-06-11T03:16:46.140Z,48
2017-06-11T03:17:54.242Z,47
2017-06-11T03:19:02.312Z,48
2017-06-11T03:20:10.408Z,47
2017-06-11T03:21:18.483Z,48
2017-06-11T03:22:26.572Z,47
2017-06-11T03:23:34.659Z,48
2017-06-11T03:24:42.745Z,48
2017-06-11T03:25:50.833Z,47
2017-06-11T03:26:58.919Z,47
2017-06-11T03:28:07.006Z,47
2017-06-11T03:29:15.100Z,47
2017-06-11T03:30:23.181Z,48
2017-06-11T03:31:31.270Z,48
2017-06-11T03:32:39.358Z,47
2017-06-11T03:33:47.445Z,48
2017-06-11T03:34:55.533Z,47
2017-06-11T03:36:03.615Z,47
2017-06-11T03:37:11.714Z,47
2017-06-11T03:38:19.797Z,47
2017-06-11T03:39:27.884Z,47
2017-06-11T03:40:35.970Z,47
2017-06-11T03:41:44.057Z,47
2017-06-11T03:42:52.148Z,47
2017-06-11T03:44:00.228Z,47
2017-06-11T03:45:08.326Z,47
2017-06-11T03:46:16.417Z,47
2017-06-11T03:47:24.496Z,47
2017-06-11T03:48:32.584Z,48
2017-06-11T03:49:40.670Z,47
2017-06-11T03:50:48.756Z,47
2017-06-11T03:51:56.841Z,48
2017-06-11T03:53:04.935Z,47
2017-06-11T03:54:13.016Z,48
2017-06-11T03:55:21.101Z,47
2017-06-11T03:56:29.189Z,47
2017-06-11T03:57:37.275Z,47
2017-06-11T03:58:45.364Z,47
2017-06-11T03:59:53.450Z,47
2017-06-11T04:01:01.536Z,47
2017-06-11T04:02:09.624Z,47
2017-06-11T04:03:17.710Z,48
2017-06-11T04:04:25.795Z,48
2017-06-11T04:05:33.881Z,47
2017-06-11T04:06:41.987Z,47
2017-06-11T04:07:50.061Z,47
2017-06-11T04:08:58.149Z,47
2017-06-11T04:10:06.242Z,48
2017-06-11T04:11:14.328Z,47
2017-06-11T04:12:22.418Z,48
2017-06-11T04:13:30.504Z,48
2017-06-11T04:14:38.592Z,48
2017-06-11T04:15:46.679Z,47
2017-06-11T04:16:54.764Z,47
2017-06-11T04:18:02.850Z,47
2017-06-11T04:19:10.936Z,47
2017-06-11T04:20:19.022Z,47
2017-06-11T04:21:27.106Z,47
2017-06-11T04:22:35.196Z,47
2017-06-11T04:23:43.283Z,48
2017-06-11T04:24:51.379Z,47
2017-06-11T04:25:59.457Z,47
2017-06-11T04:27:07.549Z,47
2017-06-11T04:28:15.630Z,47
2017-06-11T04:29:23.718Z,47
2017-06-11T04:30:31.803Z,48
2017-06-11T04:31:39.886Z,47
2017-06-11T04:32:47.976Z,48
2017-06-11T04:33:56.065Z,47
2017-06-11T04:35:04.147Z,47
2017-06-11T04:36:12.236Z,47
2017-06-11T04:37:20.322Z,47
2017-06-11T04:38:28.412Z,47
2017-06-11T04:39:36.521Z,47
2017-06-11T04:40:44.579Z,47
2017-06-11T04:41:52.667Z,47
2017-06-11T04:43:00.754Z,47
2017-06-11T04:44:08.841Z,47
2017-06-11T04:45:16.928Z,47
2017-06-11T04:46:25.017Z,47
2017-06-11T04:47:33.100Z,47
2017-06-11T04:48:41.186Z,47
2017-06-11T04:49:49.275Z,47
2017-06-11T04:50:57.359Z,47
2017-06-11T04:52:05.446Z,47
2017-06-11T04:53:13.534Z,47
2017-06-11T04:54:21.620Z,47
2017-06-11T04:55:29.705Z,47
2017-06-11T04:56:37.794Z,47
2017-06-11T04:57:45.891Z,47
2017-06-11T04:58:53.970Z,47
2017-06-11T05:00:02.056Z,47
2017-06-11T05:01:10.142Z,47
2017-06-11T05:02:18.230Z,48
2017-06-11T05:03:26.336Z,48
2017-06-11T05:04:34.407Z,48
2017-06-11T05:05:42.494Z,47
2017-06-11T05:06:50.601Z,47
2017-06-11T05:07:58.663Z,47
2017-06-11T05:09:06.757Z,47
2017-06-11T05:10:14.835Z,47
2017-06-11T05:11:22.922Z,48
2017-06-11T05:12:31.008Z,47
2017-06-11T05:13:39.095Z,47
2017-06-11T05:14:47.183Z,48
2017-06-11T05:15:55.269Z,47
2017-06-11T05:17:03.355Z,47
2017-06-11T05:18:11.440Z,47
2017-06-11T05:19:19.525Z,48
2017-06-11T05:20:27.614Z,47
2017-06-11T05:21:35.714Z,48
2017-06-11T05:22:43.786Z,48
2017-06-11T05:23:51.873Z,47
2017-06-11T05:24:59.959Z,48
2017-06-11T05:26:08.047Z,47
2017-06-11T05:27:16.140Z,48
2017-06-11T05:28:24.218Z,47
2017-06-11T05:29:32.304Z,48
2017-06-11T05:30:40.390Z,47
2017-06-11T05:31:48.501Z,48
2017-06-11T05:32:56.574Z,48
2017-06-11T05:34:04.650Z,47
2017-06-11T05:35:12.737Z,47
2017-06-11T05:36:20.829Z,47
2017-06-11T05:37:28.910Z,47
2017-06-11T05:38:37.001Z,48
2017-06-11T05:39:45.092Z,48
2017-06-11T05:40:53.174Z,48
2017-06-11T05:42:01.262Z,48
2017-06-11T05:43:09.346Z,47
2017-06-11T05:44:17.438Z,48
2017-06-11T05:45:25.526Z,48
2017-06-11T05:46:33.610Z,48
2017-06-11T05:47:41.699Z,47
2017-06-11T05:48:49.791Z,47
2017-06-11T05:49:58.042Z,48
2017-06-11T05:51:05.957Z,48
2017-06-11T05:52:14.045Z,48
2017-06-11T05:53:22.132Z,48
2017-06-11T05:54:30.216Z,48
2017-06-11T05:55:38.308Z,48
2017-06-11T05:56:46.405Z,48
2017-06-11T05:57:54.491Z,48
2017-06-11T05:59:02.578Z,48
2017-06-11T06:00:10.665Z,48
2017-06-11T06:01:18.752Z,48
2017-06-11T06:02:26.837Z,48
2017-06-11T06:03:34.923Z,48
2017-06-11T06:04:43.009Z,48
2017-06-11T06:05:51.094Z,48
2017-06-11T06:06:59.186Z,48
2017-06-11T06:08:07.269Z,48
2017-06-11T06:09:15.355Z,48
2017-06-11T06:10:23.444Z,48
2017-06-11T06:11:31.529Z,48
2017-06-11T06:12:39.615Z,48
2017-06-11T06:13:47.700Z,48
2017-06-11T06:14:55.788Z,48
2017-06-11T06:16:03.875Z,48
2017-06-11T06:17:11.960Z,48
2017-06-11T06:18:20.053Z,48
2017-06-11T06:19:28.135Z,48
2017-06-11T06:20:36.221Z,48
2017-06-11T06:21:44.306Z,48
2017-06-11T06:22:52.392Z,48
2017-06-11T06:24:00.478Z,48
2017-06-11T06:25:08.565Z,48
2017-06-11T06:26:16.651Z,48
2017-06-11T06:27:24.740Z,48
2017-06-11T06:28:32.824Z,48
2017-06-11T06:29:40.911Z,48
2017-06-11T06:30:49.002Z,48
2017-06-11T06:31:57.086Z,48
2017-06-11T06:33:05.170Z,49
2017-06-11T06:34:13.257Z,49
2017-06-11T06:35:21.342Z,49
2017-06-11T06:36:29.435Z,49
2017-06-11T06:37:37.518Z,49
2017-06-11T06:38:45.603Z,49
2017-06-11T06:39:53.695Z,49
2017-06-11T06:41:01.779Z,49
2017-06-11T06:42:09.862Z,49
2017-06-11T06:43:17.945Z,49
2017-06-11T06:44:26.042Z,49
2017-06-11T06:45:34.121Z,49
2017-06-11T06:46:42.208Z,49
2017-06-11T06:47:50.296Z,49
2017-06-11T06:48:58.381Z,49
2017-06-11T06:50:06.466Z,49
2017-06-11T06:51:14.554Z,50
2017-06-11T06:52:22.645Z,50
2017-06-11T06:53:30.738Z,50
2017-06-11T06:54:38.812Z,50
2017-06-11T06:55:46.900Z,49
2017-06-11T06:56:54.985Z,49
2017-06-11T06:58:03.078Z,50
2017-06-11T06:59:11.161Z,49
2017-06-11T07:00:19.256Z,50
2017-06-11T07:01:27.337Z,50
2017-06-11T07:02:35.422Z,50
2017-06-11T07:03:43.507Z,50
2017-06-11T07:04:51.594Z,50
2017-06-11T07:05:59.683Z,50
2017-06-11T07:07:07.769Z,50
2017-06-11T07:08:15.854Z,50
2017-06-11T07:09:23.941Z,50
2017-06-11T07:10:32.027Z,50
2017-06-11T07:11:40.115Z,50
2017-06-11T07:12:48.198Z,50
2017-06-11T07:13:56.286Z,50
2017-06-11T07:15:04.375Z,50
2017-06-11T07:16:12.456Z,51
2017-06-11T07:17:20.544Z,51
2017-06-11T07:18:28.631Z,50
2017-06-11T07:19:36.723Z,50
2017-06-11T07:20:44.808Z,51
2017-06-11T07:21:52.895Z,50
2017-06-11T07:23:00.983Z,50
2017-06-11T07:24:09.068Z,50
2017-06-11T07:25:17.154Z,51
2017-06-11T07:26:25.247Z,50
2017-06-11T07:27:33.330Z,51
2017-06-11T07:28:41.415Z,51
2017-06-11T07:29:49.501Z,50
2017-06-11T07:30:57.595Z,50
2017-06-11T07:32:05.674Z,50
2017-06-11T07:33:13.762Z,50
2017-06-11T07:34:21.849Z,50
2017-06-11T07:35:29.935Z,50
2017-06-11T07:36:38.021Z,50
2017-06-11T07:37:46.109Z,50
2017-06-11T07:38:54.220Z,50
2017-06-11T07:40:02.281Z,50
2017-06-11T07:41:10.371Z,50
2017-06-11T07:42:18.453Z,50
2017-06-11T07:43:26.539Z,50
2017-06-11T07:44:34.629Z,50
2017-06-11T07:45:42.714Z,50
2017-06-11T07:46:50.804Z,50
2017-06-11T07:47:58.890Z,50
2017-06-11T07:49:06.977Z,50
2017-06-11T07:50:15.062Z,50
2017-06-11T07:51:23.153Z,50
2017-06-11T07:52:31.235Z,50
2017-06-11T07:53:39.322Z,50
2017-06-11T07:54:47.410Z,50
2017-06-11T07:55:55.497Z,50
2017-06-11T07:57:03.583Z,50
2017-06-11T07:58:11.671Z,50
2017-06-11T07:59:19.760Z,51
2017-06-11T08:00:27.844Z,50
2017-06-11T08:01:35.931Z,50
2017-06-11T08:02:44.019Z,50
2017-06-11T08:03:52.107Z,51
2017-06-11T08:05:00.194Z,50
2017-06-11T08:06:08.354Z,50
2017-06-11T08:07:16.366Z,50
2017-06-11T08:08:24.455Z,50
2017-06-11T08:09:32.540Z,50
2017-06-11T08:10:40.627Z,50
2017-06-11T08:11:48.714Z,51
2017-06-11T08:12:56.802Z,51
2017-06-11T08:14:04.888Z,52
2017-06-11T08:15:12.976Z,52
2017-06-11T08:16:21.062Z,52
2017-06-11T08:17:29.150Z,51
2017-06-11T08:18:37.239Z,51
2017-06-11T08:19:45.350Z,51
2017-06-11T08:20:53.413Z,52
2017-06-11T08:22:01.498Z,51
2017-06-11T08:23:09.584Z,51
2017-06-11T08:24:17.671Z,52
2017-06-11T08:25:25.766Z,52
2017-06-11T08:26:33.847Z,52
2017-06-11T08:27:41.934Z,52
2017-06-11T08:28:50.018Z,51
2017-06-11T08:29:58.113Z,52
2017-06-11T08:31:06.193Z,51
2017-06-11T08:32:14.282Z,52
2017-06-11T08:33:22.378Z,51
2017-06-11T08:34:30.459Z,52
2017-06-11T08:35:38.546Z,52
2017-06-11T08:36:46.633Z,52
2017-06-11T08:37:54.728Z,52
2017-06-11T08:39:02.806Z,51
2017-06-11T08:40:10.895Z,51
2017-06-11T08:41:18.979Z,51
2017-06-11T08:42:27.067Z,51
2017-06-11T08:43:35.155Z,52
2017-06-11T08:44:43.242Z,52
2017-06-11T08:45:51.330Z,52
2017-06-11T08:46:59.420Z,52
2017-06-11T08:48:07.504Z,52
2017-06-11T08:49:15.589Z,52
2017-06-11T08:50:23.676Z,52
2017-06-11T08:51:31.764Z,52
2017-06-11T08:52:39.852Z,52
2017-06-11T08:53:47.940Z,52
2017-06-11T08:54:56.026Z,52
2017-06-11T08:56:04.115Z,52
2017-06-11T08:57:12.203Z,52
2017-06-11T08:58:20.288Z,51
2017-06-11T08:59:28.375Z,51
2017-06-11T09:00:36.486Z,52
2017-06-11T09:01:44.549Z,52
2017-06-11T09:02:52.635Z,51
2017-06-11T09:04:00.724Z,52
2017-06-11T09:05:08.811Z,52
2017-06-11T09:06:16.899Z,52
2017-06-11T09:07:24.988Z,52
2017-06-11T09:08:33.076Z,52
2017-06-11T09:09:41.182Z,51
2017-06-11T09:10:49.247Z,52
2017-06-11T09:11:57.334Z,52
2017-06-11T09:13:05.426Z,52
2017-06-11T09:14:13.506Z,52
2017-06-11T09:15:21.594Z,51
2017-06-11T09:16:29.682Z,52
2017-06-11T09:17:37.769Z,51
2017-06-11T09:18:45.857Z,51
2017-06-11T09:19:53.943Z,52
2017-06-11T09:21:02.030Z,51
2017-06-11T09:22:10.118Z,52
2017-06-11T09:23:18.204Z,51
2017-06-11T09:24:26.292Z,52
2017-06-11T09:25:34.380Z,52
2017-06-11T09:26:42.587Z,52
2017-06-11T09:27:50.558Z,52
2017-06-11T09:28:58.641Z,51
2017-06-11T09:30:06.749Z,52
2017-06-11T09:31:14.825Z,51
2017-06-11T09:32:22.914Z,52
2017-06-11T09:33:31.002Z,51
2017-06-11T09:34:39.089Z,51
2017-06-11T09:35:47.177Z,52
2017-06-11T09:36:55.264Z,52
2017-06-11T09:38:03.360Z,52
2017-06-11T09:39:11.447Z,52
2017-06-11T09:40:19.530Z,52
2017-06-11T09:41:27.621Z,52
2017-06-11T09:42:35.709Z,52
2017-06-11T09:43:43.797Z,52
2017-06-11T09:44:51.886Z,51
2017-06-11T09:45:59.971Z,51
2017-06-11T09:47:08.074Z,52
2017-06-11T09:48:16.145Z,52
2017-06-11T09:49:24.233Z,52
2017-06-11T09:50:32.322Z,52
2017-06-11T09:51:40.414Z,51
2017-06-11T09:52:48.497Z,51
2017-06-11T09:53:56.584Z,51
2017-06-11T09:55:04.670Z,51
2017-06-11T09:56:12.760Z,51
2017-06-11T09:57:20.847Z,51
2017-06-11T09:58:28.965Z,51
2017-06-11T09:59:37.023Z,51
2017-06-11T10:00:45.108Z,51
2017-06-11T10:01:53.198Z,51
2017-06-11T10:03:01.286Z,51
2017-06-11T10:04:09.371Z,51
2017-06-11T10:05:17.459Z,51
2017-06-11T10:06:25.560Z,51
2017-06-11T10:07:33.636Z,51
2017-06-11T10:08:41.722Z,52
2017-06-11T10:09:49.811Z,52
2017-06-11T10:10:57.898Z,52
2017-06-11T10:12:05.988Z,52
2017-06-11T10:13:14.071Z,51
2017-06-11T10:14:22.160Z,51
2017-06-11T10:15:30.246Z,51
2017-06-11T10:16:38.335Z,51
2017-06-11T10:17:46.439Z,51
2017-06-11T10:18:54.515Z,51
2017-06-11T10:20:02.597Z,51
2017-06-11T10:21:10.685Z,51
2017-06-11T10:22:18.777Z,51
2017-06-11T10:23:26.863Z,51
2017-06-11T10:24:34.949Z,51
2017-06-11T10:25:43.038Z,51
2017-06-11T10:26:51.124Z,51
2017-06-11T10:27:59.213Z,51
2017-06-11T10:29:07.303Z,51
2017-06-11T10:30:15.388Z,51
2017-06-11T10:31:23.475Z,51
2017-06-11T10:32:31.564Z,51
2017-06-11T10:33:39.656Z,51
2017-06-11T10:34:47.753Z,51
2017-06-11T10:35:55.829Z,51
2017-06-11T10:37:03.918Z,51
2017-06-11T10:38:12.006Z,51
2017-06-11T10:39:20.094Z,51
2017-06-11T10:40:28.189Z,51
2017-06-11T10:41:36.275Z,51
2017-06-11T10:42:44.370Z,51
2017-06-11T10:43:52.452Z,51
2017-06-11T10:45:00.541Z,50
2017-06-11T10:46:08.630Z,51
2017-06-11T10:47:16.719Z,50
2017-06-11T10:48:24.808Z,50
2017-06-11T10:49:32.895Z,50
2017-06-11T10:50:40.980Z,50
2017-06-11T10:51:49.107Z,50
2017-06-11T10:52:57.157Z,51
2017-06-11T10:54:05.243Z,50
2017-06-11T10:55:13.332Z,51
2017-06-11T10:56:21.421Z,50
2017-06-11T10:57:29.508Z,51
2017-06-11T10:58:37.597Z,51
2017-06-11T10:59:45.684Z,50
2017-06-11T11:00:53.772Z,50
2017-06-11T11:02:01.861Z,50
2017-06-11T11:03:09.947Z,50
2017-06-11T11:04:18.038Z,51
2017-06-11T11:05:26.125Z,51
2017-06-11T11:06:34.211Z,51
2017-06-11T11:07:42.301Z,50
2017-06-11T11:08:50.416Z,50
2017-06-11T11:09:58.475Z,50
2017-06-11T11:11:06.566Z,50
2017-06-11T11:12:14.653Z,50
2017-06-11T11:13:22.741Z,50
2017-06-11T11:14:30.830Z,50
2017-06-11T11:15:38.916Z,51
2017-06-11T11:16:47.005Z,51
2017-06-11T11:17:55.100Z,50
2017-06-11T11:19:03.190Z,51
2017-06-11T11:20:11.270Z,50
2017-06-11T11:21:19.356Z,51
2017-06-11T11:22:27.443Z,51
2017-06-11T11:23:35.535Z,51
2017-06-11T11:24:43.619Z,50
2017-06-11T11:25:51.707Z,50
2017-06-11T11:26:59.797Z,50
2017-06-11T11:28:07.883Z,50
2017-06-11T11:29:15.974Z,50
2017-06-11T11:30:24.060Z,50
2017-06-11T11:31:32.147Z,51
2017-06-11T11:32:40.235Z,51
2017-06-11T11:33:48.323Z,51
2017-06-11T11:34:56.410Z,50
2017-06-11T11:36:04.503Z,50
2017-06-11T11:37:12.589Z,50
2017-06-11T11:38:20.677Z,50
2017-06-11T11:39:28.767Z,50
2017-06-11T11:40:36.854Z,50
2017-06-11T11:41:44.940Z,50
2017-06-11T11:42:53.026Z,50
2017-06-11T11:44:01.114Z,50
2017-06-11T11:45:09.207Z,50
2017-06-11T11:46:17.298Z,50
2017-06-11T11:47:25.383Z,50
2017-06-11T11:48:33.471Z,50
2017-06-11T11:49:41.556Z,50
2017-06-11T11:50:49.648Z,50
2017-06-11T11:51:57.733Z,50
2017-06-11T11:53:05.820Z,50
2017-06-11T11:54:13.910Z,50
2017-06-11T11:55:21.998Z,49
2017-06-11T11:56:30.086Z,49
2017-06-11T11:57:38.176Z,50
2017-06-11T11:58:46.268Z,50
2017-06-11T11:59:54.353Z,50
2017-06-11T12:01:02.440Z,50
2017-06-11T12:02:10.532Z,50
2017-06-11T12:03:18.621Z,50
2017-06-11T12:04:26.708Z,49
2017-06-11T12:05:34.796Z,49
2017-06-11T12:06:42.886Z,50
2017-06-11T12:07:50.974Z,49
2017-06-11T12:08:59.062Z,49
2017-06-11T12:10:07.150Z,49
2017-06-11T12:11:15.239Z,49
2017-06-11T12:12:23.327Z,49
2017-06-11T12:13:31.415Z,49
2017-06-11T12:14:39.504Z,49
2017-06-11T12:15:47.592Z,49
2017-06-11T12:16:55.679Z,49
2017-06-11T12:18:03.773Z,49
2017-06-11T12:19:11.861Z,49
2017-06-11T12:20:19.946Z,49
2017-06-11T12:21:28.036Z,49
2017-06-11T12:22:36.125Z,49
2017-06-11T12:23:44.213Z,49
2017-06-11T12:24:52.301Z,48
2017-06-11T12:26:00.396Z,48
2017-06-11T12:27:08.481Z,48
2017-06-11T12:28:16.569Z,48
2017-06-11T12:29:24.658Z,48
2017-06-11T12:30:32.747Z,48
2017-06-11T12:31:40.834Z,48
2017-06-11T12:32:48.923Z,48
2017-06-11T12:33:57.010Z,48
2017-06-11T12:35:05.100Z,48
2017-06-11T12:36:13.189Z,47
2017-06-11T12:37:21.282Z,48
2017-06-11T12:38:29.371Z,47
2017-06-11T12:39:37.465Z,47
2017-06-11T12:40:45.547Z,47
2017-06-11T12:41:53.636Z,47
2017-06-11T12:43:01.726Z,47
2017-06-11T12:44:09.815Z,47
2017-06-11T12:45:17.905Z,47
2017-06-11T12:46:25.998Z,47
2017-06-11T12:47:34.078Z,47
2017-06-11T12:48:42.166Z,47
2017-06-11T12:49:50.256Z,47
2017-06-11T12:50:58.346Z,47
2017-06-11T12:52:06.432Z,47
2017-06-11T12:53:14.522Z,47
2017-06-11T12:54:22.608Z,47
2017-06-11T12:55:30.697Z,47
2017-06-11T12:56:38.786Z,47
2017-06-11T12:57:46.873Z,47
2017-06-11T12:58:54.962Z,47
2017-06-11T13:00:03.052Z,47
2017-06-11T13:01:11.138Z,47
2017-06-11T13:02:19.226Z,47
2017-06-11T13:03:27.318Z,47
2017-06-11T13:04:35.405Z,47
2017-06-11T13:05:43.494Z,47
2017-06-11T13:06:51.588Z,47
2017-06-11T13:07:59.701Z,47
2017-06-11T13:09:07.791Z,48
2017-06-11T13:10:15.854Z,47
2017-06-11T13:11:23.941Z,46
2017-06-11T13:12:32.031Z,46
2017-06-11T13:13:40.125Z,47
2017-06-11T13:14:48.209Z,46
2017-06-11T13:15:56.297Z,46
2017-06-11T13:17:04.383Z,46
2017-06-11T13:18:12.473Z,46
2017-06-11T13:19:20.559Z,47
2017-06-11T13:20:28.651Z,46
2017-06-11T13:21:36.740Z,46
2017-06-11T13:22:44.828Z,47
2017-06-11T13:23:52.919Z,47
2017-06-11T13:25:01.004Z,46
2017-06-11T13:26:09.116Z,47
2017-06-11T13:27:17.180Z,46
2017-06-11T13:28:25.268Z,46
2017-06-11T13:29:33.360Z,47
2017-06-11T13:30:41.454Z,47
2017-06-11T13:31:49.543Z,46
2017-06-11T13:32:57.630Z,46
2017-06-11T13:34:05.717Z,47
2017-06-11T13:35:13.809Z,46
2017-06-11T13:36:21.900Z,46
2017-06-11T13:37:29.990Z,46
2017-06-11T13:38:38.079Z,47
2017-06-11T13:39:46.167Z,47
2017-06-11T13:40:54.256Z,47
2017-06-11T13:42:02.349Z,46
2017-06-11T13:43:10.432Z,46
2017-06-11T13:44:18.520Z,47
2017-06-11T13:45:26.610Z,46
2017-06-11T13:46:34.697Z,47
2017-06-11T13:47:42.788Z,46
2017-06-11T13:48:50.876Z,46
2017-06-11T13:49:58.964Z,46
2017-06-11T13:51:07.053Z,46
2017-06-11T13:52:15.141Z,47
2017-06-11T13:53:23.228Z,46
2017-06-11T13:54:31.326Z,46
2017-06-11T13:55:39.405Z,46
2017-06-11T13:56:47.494Z,46
2017-06-11T13:57:55.583Z,45
2017-06-11T13:59:03.697Z,46
2017-06-11T14:00:11.762Z,45
2017-06-11T14:01:19.850Z,46
2017-06-11T14:02:27.938Z,45
2017-06-11T14:03:36.026Z,45
2017-06-11T14:04:44.115Z,46
2017-06-11T14:05:52.210Z,45
2017-06-11T14:07:00.299Z,46
2017-06-11T14:08:08.389Z,45
2017-06-11T14:09:16.485Z,45
2017-06-11T14:10:24.582Z,45
2017-06-11T14:11:32.670Z,45
2017-06-11T14:12:40.759Z,45
2017-06-11T14:13:48.849Z,45
2017-06-11T14:14:56.938Z,44
2017-06-11T14:16:05.051Z,45
2017-06-11T14:17:13.114Z,45
2017-06-11T14:18:21.216Z,44
2017-06-11T14:19:29.305Z,45
2017-06-11T14:20:37.398Z,45
2017-06-11T14:21:45.483Z,45
2017-06-11T14:22:53.572Z,45
2017-06-11T14:24:01.657Z,45
2017-06-11T14:25:09.750Z,44
2017-06-11T14:26:17.836Z,45
2017-06-11T14:27:25.928Z,45
2017-06-11T14:28:34.015Z,45
2017-06-11T14:29:42.103Z,45
2017-06-11T14:30:50.196Z,45
2017-06-11T14:31:58.281Z,46
2017-06-11T14:33:06.369Z,46
2017-06-11T14:34:14.464Z,46
2017-06-11T14:35:22.553Z,46
2017-06-11T14:36:30.642Z,46
2017-06-11T14:37:38.730Z,46
2017-06-11T14:38:46.820Z,46
2017-06-11T14:39:54.909Z,46
2017-06-11T14:41:02.996Z,46
2017-06-11T14:42:11.086Z,46
2017-06-11T14:43:19.173Z,46
2017-06-11T14:44:27.271Z,46
2017-06-11T14:45:35.352Z,46
2017-06-11T14:46:43.442Z,47
2017-06-11T14:47:51.534Z,47
2017-06-11T14:48:59.618Z,47
2017-06-11T14:50:07.710Z,47
2017-06-11T14:51:15.799Z,47
2017-06-11T14:52:23.887Z,47
2017-06-11T14:53:31.975Z,46
2017-06-11T14:54:40.064Z,47
2017-06-11T14:55:48.151Z,46
2017-06-11T14:56:56.243Z,46
2017-06-11T14:58:04.423Z,46
2017-06-11T14:59:12.420Z,47
2017-06-11T15:00:20.509Z,47
2017-06-11T15:01:28.605Z,46
2017-06-11T15:02:36.692Z,47
2017-06-11T15:03:44.784Z,47
2017-06-11T15:04:52.877Z,46
2017-06-11T15:06:00.961Z,47
2017-06-11T15:07:09.050Z,47
2017-06-11T15:08:17.146Z,46
2017-06-11T15:09:25.229Z,47
2017-06-11T15:10:33.315Z,47
2017-06-11T15:11:41.407Z,47
2017-06-11T15:12:49.498Z,47
2017-06-11T15:13:57.584Z,47
2017-06-11T15:15:05.727Z,47
2017-06-11T15:16:13.762Z,47
2017-06-11T15:17:21.851Z,47
2017-06-11T15:18:29.941Z,46
2017-06-11T15:19:38.031Z,47
2017-06-11T15:20:46.121Z,47
2017-06-11T15:21:54.209Z,46
2017-06-11T15:23:02.297Z,47
2017-06-11T15:24:10.410Z,46
2017-06-11T15:25:18.501Z,46
2017-06-11T15:26:26.564Z,47
2017-06-11T15:27:34.659Z,46
2017-06-11T15:28:42.742Z,46
2017-06-11T15:29:50.833Z,46
2017-06-11T15:30:58.934Z,46
2017-06-11T15:32:07.008Z,47
2017-06-11T15:33:15.098Z,47
2017-06-11T15:34:23.193Z,46
2017-06-11T15:35:31.290Z,46
2017-06-11T15:36:39.391Z,46
2017-06-11T15:37:47.468Z,46
2017-06-11T15:38:55.556Z,46
2017-06-11T15:40:03.644Z,46
2017-06-11T15:41:11.732Z,46
2017-06-11T15:42:19.824Z,46
2017-06-11T15:43:27.916Z,46
2017-06-11T15:44:36.003Z,46
2017-06-11T15:45:44.093Z,46
2017-06-11T15:46:52.182Z,46
2017-06-11T15:48:00.271Z,46
2017-06-11T15:49:08.361Z,46
2017-06-11T15:50:16.450Z,46
2017-06-11T15:51:24.537Z,46
2017-06-11T15:52:32.626Z,46
2017-06-11T15:53:40.716Z,46
2017-06-11T15:54:48.805Z,46
2017-06-11T15:55:56.896Z,46
2017-06-11T15:57:04.984Z,46
2017-06-11T15:58:13.080Z,46
2017-06-11T15:59:21.169Z,46
2017-06-11T16:00:29.256Z,46
2017-06-11T16:01:37.347Z,46
2017-06-11T16:02:45.437Z,45
2017-06-11T16:03:53.528Z,45
2017-06-11T16:05:01.615Z,45
2017-06-11T16:06:09.708Z,45
2017-06-11T16:07:17.794Z,45
2017-06-11T16:08:25.884Z,45
2017-06-11T16:09:33.973Z,45
2017-06-11T16:10:42.063Z,45